sensor_id;sensor_type;location;lat;lon;timestamp;P1;durP1;ratioP1;P2;durP2;ratioP2
75342;SDS011;63936;51.006;13.764;2022-10-16T00:00:02;15;;;12;;
75342;SDS011;63936;51.006;13.764;2022-10-16T00:02:04;16;;;13;;
75342;SDS011;63936;51.006;13.764;2022-10-16T00:04:04;16;;;13;;
75342;SDS011;63936;51.006;13.764;2022-10-16T00:06:03;17;;;13;;
75342;SDS011;63936;51.006;13.764;2022-10-16T00:08:03;19;;;13;;
75342;SDS011;63936;51.006;13.764;2022-10-16T00:10:03;17;;;13;;
75342;SDS011;63936;51.006;13.764;2022-10-16T00:12:02;17;;;13;;
75342;SDS011;63936;51.006;13.764;2022-10-16T00:14:03;18;;;14;;
75342;SDS011;63936;51.006;13.764;2022-10-16T00:16:02;18;;;13;;
75342;SDS011;63936;51.006;13.764;2022-10-16T00:18:02;16;;;12;;
75342;SDS011;63936;51.006;13.764;2022-10-16T00:20:04;15;;;12;;
75342;SDS011;63936;51.006;13.764;2022-10-16T00:22:03;14;;;11;;
75342;SDS011;63936;51.006;13.764;2022-10-16T00:24:03;15;;;11;;
75342;SDS011;63936;51.006;13.764;2022-10-16T00:26:02;16;;;12;;
75342;SDS011;63936;51.006;13.764;2022-10-16T00:28:02;15;;;12;;
75342;SDS011;63936;51.006;13.764;2022-10-16T00:30:02;14;;;10;;
75342;SDS011;63936;51.006;13.764;2022-10-16T00:32:02;14;;;10;;
75342;SDS011;63936;51.006;13.764;2022-10-16T00:34:02;14;;;11;;
75342;SDS011;63936;51.006;13.764;2022-10-16T00:36:04;14;;;11;;
75342;SDS011;63936;51.006;13.764;2022-10-16T00:38:02;14;;;11;;
75342;SDS011;63936;51.006;13.764;2022-10-16T00:40:05;15;;;11;;
75342;SDS011;63936;51.006;13.764;2022-10-16T00:42:04;16;;;12;;
75342;SDS011;63936;51.006;13.764;2022-10-16T00:44:02;16;;;12;;
75342;SDS011;63936;51.006;13.764;2022-10-16T00:46:04;17;;;12;;
75342;SDS011;63936;51.006;13.764;2022-10-16T00:48:03;17;;;12;;
75342;SDS011;63936;51.006;13.764;2022-10-16T00:50:06;18;;;14;;
75342;SDS011;63936;51.006;13.764;2022-10-16T00:52:02;19;;;14;;
75342;SDS011;63936;51.006;13.764;2022-10-16T00:54:02;19;;;14;;
75342;SDS011;63936;51.006;13.764;2022-10-16T00:56:02;18;;;13;;
75342;SDS011;63936;51.006;13.764;2022-10-16T00:58:02;16;;;13;;
75342;SDS011;63936;51.006;13.764;2022-10-16T01:00:02;17;;;13;;
75342;SDS011;63936;51.006;13.764;2022-10-16T01:02:02;19;;;13;;
75342;SDS011;63936;51.006;13.764;2022-10-16T01:04:02;17;;;14;;
75342;SDS011;63936;51.006;13.764;2022-10-16T01:06:06;17;;;14;;
75342;SDS011;63936;51.006;13.764;2022-10-16T01:08:03;13;;;9;;
75342;SDS011;63936;51.006;13.764;2022-10-16T01:10:04;13;;;9;;
75342;SDS011;63936;51.006;13.764;2022-10-16T01:12:04;14;;;9;;
75342;SDS011;63936;51.006;13.764;2022-10-16T01:14:03;14;;;9;;
75342;SDS011;63936;51.006;13.764;2022-10-16T01:16:03;18;;;14;;
75342;SDS011;63936;51.006;13.764;2022-10-16T01:18:03;18;;;14;;
75342;SDS011;63936;51.006;13.764;2022-10-16T01:20:03;15;;;12;;
75342;SDS011;63936;51.006;13.764;2022-10-16T01:22:01;14;;;12;;
75342;SDS011;63936;51.006;13.764;2022-10-16T01:24:03;17;;;11;;
75342;SDS011;63936;51.006;13.764;2022-10-16T01:26:08;16;;;12;;
75342;SDS011;63936;51.006;13.764;2022-10-16T01:28:02;16;;;12;;
75342;SDS011;63936;51.006;13.764;2022-10-16T01:30:04;16;;;12;;
75342;SDS011;63936;51.006;13.764;2022-10-16T01:32:05;18;;;15;;
75342;SDS011;63936;51.006;13.764;2022-10-16T01:34:02;18;;;15;;
75342;SDS011;63936;51.006;13.764;2022-10-16T01:36:02;15;;;10;;
75342;SDS011;63936;51.006;13.764;2022-10-16T01:38:01;16;;;13;;
75342;SDS011;63936;51.006;13.764;2022-10-16T01:40:02;16;;;13;;
75342;SDS011;63936;51.006;13.764;2022-10-16T01:42:03;14;;;12;;
75342;SDS011;63936;51.006;13.764;2022-10-16T01:44:02;14;;;12;;
75342;SDS011;63936;51.006;13.764;2022-10-16T01:46:02;14;;;10;;
75342;SDS011;63936;51.006;13.764;2022-10-16T01:48:02;14;;;10;;
75342;SDS011;63936;51.006;13.764;2022-10-16T01:50:02;13;;;9;;
75342;SDS011;63936;51.006;13.764;2022-10-16T01:52:02;12;;;10;;
75342;SDS011;63936;51.006;13.764;2022-10-16T01:54:02;11;;;10;;
75342;SDS011;63936;51.006;13.764;2022-10-16T01:56:02;11;;;10;;
75342;SDS011;63936;51.006;13.764;2022-10-16T01:58:02;11;;;9;;
75342;SDS011;63936;51.006;13.764;2022-10-16T02:00:05;11;;;9;;
75342;SDS011;63936;51.006;13.764;2022-10-16T02:02:04;10;;;8;;
75342;SDS011;63936;51.006;13.764;2022-10-16T02:04:03;11;;;10;;
75342;SDS011;63936;51.006;13.764;2022-10-16T02:06:02;11;;;10;;
75342;SDS011;63936;51.006;13.764;2022-10-16T02:08:02;13;;;7;;
75342;SDS011;63936;51.006;13.764;2022-10-16T02:10:04;13;;;7;;
75342;SDS011;63936;51.006;13.764;2022-10-16T02:12:05;11;;;10;;
75342;SDS011;63936;51.006;13.764;2022-10-16T02:14:03;11;;;10;;
75342;SDS011;63936;51.006;13.764;2022-10-16T02:16:02;13;;;12;;
75342;SDS011;63936;51.006;13.764;2022-10-16T02:18:02;13;;;11;;
75342;SDS011;63936;51.006;13.764;2022-10-16T02:20:03;13;;;11;;
75342;SDS011;63936;51.006;13.764;2022-10-16T02:22:03;14;;;11;;
75342;SDS011;63936;51.006;13.764;2022-10-16T02:24:03;14;;;12;;
75342;SDS011;63936;51.006;13.764;2022-10-16T02:26:02;14;;;12;;
75342;SDS011;63936;51.006;13.764;2022-10-16T02:28:02;15;;;12;;
75342;SDS011;63936;51.006;13.764;2022-10-16T02:30:03;15;;;13;;
75342;SDS011;63936;51.006;13.764;2022-10-16T02:32:01;14;;;12;;
75342;SDS011;63936;51.006;13.764;2022-10-16T02:34:01;14;;;12;;
75342;SDS011;63936;51.006;13.764;2022-10-16T02:36:01;14;;;11;;
75342;SDS011;63936;51.006;13.764;2022-10-16T02:38:01;15;;;13;;
75342;SDS011;63936;51.006;13.764;2022-10-16T02:40:02;15;;;13;;
75342;SDS011;63936;51.006;13.764;2022-10-16T02:42:01;16;;;13;;
75342;SDS011;63936;51.006;13.764;2022-10-16T02:44:01;16;;;13;;
75342;SDS011;63936;51.006;13.764;2022-10-16T02:46:01;14;;;11;;
75342;SDS011;63936;51.006;13.764;2022-10-16T02:48:01;14;;;11;;
75342;SDS011;63936;51.006;13.764;2022-10-16T02:50:01;13;;;10;;
75342;SDS011;63936;51.006;13.764;2022-10-16T02:52:01;14;;;10;;
75342;SDS011;63936;51.006;13.764;2022-10-16T02:54:01;14;;;10;;
75342;SDS011;63936;51.006;13.764;2022-10-16T02:56:01;14;;;10;;
75342;SDS011;63936;51.006;13.764;2022-10-16T02:58:01;14;;;10;;
75342;SDS011;63936;51.006;13.764;2022-10-16T03:00:02;14;;;10;;
75342;SDS011;63936;51.006;13.764;2022-10-16T03:02:03;13;;;10;;
75342;SDS011;63936;51.006;13.764;2022-10-16T03:04:02;14;;;11;;
75342;SDS011;63936;51.006;13.764;2022-10-16T03:06:03;13;;;10;;
75342;SDS011;63936;51.006;13.764;2022-10-16T03:08:02;14;;;11;;
75342;SDS011;63936;51.006;13.764;2022-10-16T03:10:05;14;;;11;;
75342;SDS011;63936;51.006;13.764;2022-10-16T03:12:03;14;;;11;;
75342;SDS011;63936;51.006;13.764;2022-10-16T03:14:01;14;;;12;;
75342;SDS011;63936;51.006;13.764;2022-10-16T03:16:02;14;;;12;;
75342;SDS011;63936;51.006;13.764;2022-10-16T03:18:02;13;;;11;;
75342;SDS011;63936;51.006;13.764;2022-10-16T03:20:02;14;;;12;;
75342;SDS011;63936;51.006;13.764;2022-10-16T03:22:01;14;;;12;;
75342;SDS011;63936;51.006;13.764;2022-10-16T03:24:01;13;;;10;;
75342;SDS011;63936;51.006;13.764;2022-10-16T03:26:01;14;;;11;;
75342;SDS011;63936;51.006;13.764;2022-10-16T03:28:01;14;;;11;;
75342;SDS011;63936;51.006;13.764;2022-10-16T03:30:01;15;;;12;;
75342;SDS011;63936;51.006;13.764;2022-10-16T03:32:01;15;;;12;;
75342;SDS011;63936;51.006;13.764;2022-10-16T03:34:01;15;;;12;;
75342;SDS011;63936;51.006;13.764;2022-10-16T03:36:02;14;;;10;;
75342;SDS011;63936;51.006;13.764;2022-10-16T03:38:02;14;;;10;;
75342;SDS011;63936;51.006;13.764;2022-10-16T03:40:02;15;;;10;;
75342;SDS011;63936;51.006;13.764;2022-10-16T03:42:01;14;;;10;;
75342;SDS011;63936;51.006;13.764;2022-10-16T03:44:01;14;;;10;;
75342;SDS011;63936;51.006;13.764;2022-10-16T03:46:01;14;;;10;;
75342;SDS011;63936;51.006;13.764;2022-10-16T03:48:01;17;;;13;;
75342;SDS011;63936;51.006;13.764;2022-10-16T03:50:02;18;;;15;;
75342;SDS011;63936;51.006;13.764;2022-10-16T03:52:02;18;;;14;;
75342;SDS011;63936;51.006;13.764;2022-10-16T03:54:02;16;;;13;;
75342;SDS011;63936;51.006;13.764;2022-10-16T03:56:02;17;;;14;;
75342;SDS011;63936;51.006;13.764;2022-10-16T03:58:02;16;;;13;;
75342;SDS011;63936;51.006;13.764;2022-10-16T04:00:02;15;;;12;;
75342;SDS011;63936;51.006;13.764;2022-10-16T04:02:01;16;;;15;;
75342;SDS011;63936;51.006;13.764;2022-10-16T04:04:01;16;;;15;;
75342;SDS011;63936;51.006;13.764;2022-10-16T04:06:01;18;;;14;;
75342;SDS011;63936;51.006;13.764;2022-10-16T04:08:01;18;;;14;;
75342;SDS011;63936;51.006;13.764;2022-10-16T04:10:01;17;;;14;;
75342;SDS011;63936;51.006;13.764;2022-10-16T04:12:01;18;;;15;;
75342;SDS011;63936;51.006;13.764;2022-10-16T04:14:01;17;;;14;;
75342;SDS011;63936;51.006;13.764;2022-10-16T04:16:01;18;;;14;;
75342;SDS011;63936;51.006;13.764;2022-10-16T04:18:01;16;;;13;;
75342;SDS011;63936;51.006;13.764;2022-10-16T04:20:02;17;;;14;;
75342;SDS011;63936;51.006;13.764;2022-10-16T04:22:02;17;;;15;;
75342;SDS011;63936;51.006;13.764;2022-10-16T04:24:02;17;;;14;;
75342;SDS011;63936;51.006;13.764;2022-10-16T04:26:01;16;;;14;;
75342;SDS011;63936;51.006;13.764;2022-10-16T04:28:01;16;;;13;;
75342;SDS011;63936;51.006;13.764;2022-10-16T04:30:01;14;;;12;;
75342;SDS011;63936;51.006;13.764;2022-10-16T04:32:01;14;;;12;;
75342;SDS011;63936;51.006;13.764;2022-10-16T04:34:01;16;;;11;;
75342;SDS011;63936;51.006;13.764;2022-10-16T04:36:02;15;;;11;;
75342;SDS011;63936;51.006;13.764;2022-10-16T04:38:01;15;;;11;;
75342;SDS011;63936;51.006;13.764;2022-10-16T04:40:02;15;;;12;;
75342;SDS011;63936;51.006;13.764;2022-10-16T04:42:02;13;;;11;;
75342;SDS011;63936;51.006;13.764;2022-10-16T04:44:02;13;;;11;;
75342;SDS011;63936;51.006;13.764;2022-10-16T04:46:02;14;;;12;;
75342;SDS011;63936;51.006;13.764;2022-10-16T04:48:02;14;;;12;;
75342;SDS011;63936;51.006;13.764;2022-10-16T04:50:01;15;;;12;;
75342;SDS011;63936;51.006;13.764;2022-10-16T04:52:01;15;;;12;;
75342;SDS011;63936;51.006;13.764;2022-10-16T04:54:01;14;;;12;;
75342;SDS011;63936;51.006;13.764;2022-10-16T04:56:01;14;;;12;;
75342;SDS011;63936;51.006;13.764;2022-10-16T04:58:01;14;;;12;;
75342;SDS011;63936;51.006;13.764;2022-10-16T05:00:02;14;;;12;;
75342;SDS011;63936;51.006;13.764;2022-10-16T05:02:02;13;;;11;;
75342;SDS011;63936;51.006;13.764;2022-10-16T05:04:02;14;;;12;;
75342;SDS011;63936;51.006;13.764;2022-10-16T05:06:04;14;;;11;;
75342;SDS011;63936;51.006;13.764;2022-10-16T05:08:02;13;;;11;;
75342;SDS011;63936;51.006;13.764;2022-10-16T05:10:03;12;;;9;;
75342;SDS011;63936;51.006;13.764;2022-10-16T05:12:03;12;;;10;;
75342;SDS011;63936;51.006;13.764;2022-10-16T05:14:01;13;;;11;;
75342;SDS011;63936;51.006;13.764;2022-10-16T05:16:02;13;;;11;;
75342;SDS011;63936;51.006;13.764;2022-10-16T05:18:01;12;;;10;;
75342;SDS011;63936;51.006;13.764;2022-10-16T05:20:02;12;;;10;;
75342;SDS011;63936;51.006;13.764;2022-10-16T05:22:02;12;;;10;;
75342;SDS011;63936;51.006;13.764;2022-10-16T05:24:02;12;;;10;;
75342;SDS011;63936;51.006;13.764;2022-10-16T05:26:03;13;;;11;;
75342;SDS011;63936;51.006;13.764;2022-10-16T05:28:01;14;;;11;;
75342;SDS011;63936;51.006;13.764;2022-10-16T05:30:03;14;;;12;;
75342;SDS011;63936;51.006;13.764;2022-10-16T05:32:02;14;;;12;;
75342;SDS011;63936;51.006;13.764;2022-10-16T05:34:02;14;;;12;;
75342;SDS011;63936;51.006;13.764;2022-10-16T05:36:02;13;;;12;;
75342;SDS011;63936;51.006;13.764;2022-10-16T05:38:02;14;;;11;;
75342;SDS011;63936;51.006;13.764;2022-10-16T05:40:05;14;;;11;;
75342;SDS011;63936;51.006;13.764;2022-10-16T05:42:02;14;;;12;;
75342;SDS011;63936;51.006;13.764;2022-10-16T05:44:04;14;;;12;;
75342;SDS011;63936;51.006;13.764;2022-10-16T05:46:03;15;;;12;;
75342;SDS011;63936;51.006;13.764;2022-10-16T05:48:02;14;;;12;;
75342;SDS011;63936;51.006;13.764;2022-10-16T05:50:03;13;;;11;;
75342;SDS011;63936;51.006;13.764;2022-10-16T05:52:02;13;;;11;;
75342;SDS011;63936;51.006;13.764;2022-10-16T05:54:02;13;;;11;;
75342;SDS011;63936;51.006;13.764;2022-10-16T05:56:02;13;;;11;;
75342;SDS011;63936;51.006;13.764;2022-10-16T05:58:02;12;;;10;;
75342;SDS011;63936;51.006;13.764;2022-10-16T06:00:05;13;;;10;;
75342;SDS011;63936;51.006;13.764;2022-10-16T06:02:03;12;;;9;;
75342;SDS011;63936;51.006;13.764;2022-10-16T06:04:01;11;;;9;;
75342;SDS011;63936;51.006;13.764;2022-10-16T06:06:07;11;;;9;;
75342;SDS011;63936;51.006;13.764;2022-10-16T06:08:02;11;;;9;;
75342;SDS011;63936;51.006;13.764;2022-10-16T06:10:03;10;;;9;;
75342;SDS011;63936;51.006;13.764;2022-10-16T06:12:02;11;;;9;;
75342;SDS011;63936;51.006;13.764;2022-10-16T06:14:02;11;;;9;;
75342;SDS011;63936;51.006;13.764;2022-10-16T06:16:02;12;;;9;;
75342;SDS011;63936;51.006;13.764;2022-10-16T06:18:01;10;;;8;;
75342;SDS011;63936;51.006;13.764;2022-10-16T06:20:02;10;;;8;;
75342;SDS011;63936;51.006;13.764;2022-10-16T06:22:02;11;;;9;;
75342;SDS011;63936;51.006;13.764;2022-10-16T06:24:02;10;;;8;;
75342;SDS011;63936;51.006;13.764;2022-10-16T06:26:05;10;;;9;;
75342;SDS011;63936;51.006;13.764;2022-10-16T06:28:02;10;;;9;;
75342;SDS011;63936;51.006;13.764;2022-10-16T06:30:03;13;;;9;;
75342;SDS011;63936;51.006;13.764;2022-10-16T06:32:01;12;;;9;;
75342;SDS011;63936;51.006;13.764;2022-10-16T06:34:02;14;;;9;;
75342;SDS011;63936;51.006;13.764;2022-10-16T06:36:02;11;;;9;;
75342;SDS011;63936;51.006;13.764;2022-10-16T06:38:01;11;;;9;;
75342;SDS011;63936;51.006;13.764;2022-10-16T06:40:02;11;;;9;;
75342;SDS011;63936;51.006;13.764;2022-10-16T06:42:02;11;;;9;;
75342;SDS011;63936;51.006;13.764;2022-10-16T06:44:05;11;;;10;;
75342;SDS011;63936;51.006;13.764;2022-10-16T06:46:03;11;;;9;;
75342;SDS011;63936;51.006;13.764;2022-10-16T06:48:02;11;;;10;;
75342;SDS011;63936;51.006;13.764;2022-10-16T06:50:03;11;;;10;;
75342;SDS011;63936;51.006;13.764;2022-10-16T06:52:02;11;;;9;;
75342;SDS011;63936;51.006;13.764;2022-10-16T06:54:02;11;;;10;;
75342;SDS011;63936;51.006;13.764;2022-10-16T06:56:06;11;;;9;;
75342;SDS011;63936;51.006;13.764;2022-10-16T06:58:01;12;;;10;;
75342;SDS011;63936;51.006;13.764;2022-10-16T07:00:03;11;;;9;;
75342;SDS011;63936;51.006;13.764;2022-10-16T07:02:02;11;;;10;;
75342;SDS011;63936;51.006;13.764;2022-10-16T07:04:01;12;;;10;;
75342;SDS011;63936;51.006;13.764;2022-10-16T07:06:02;13;;;10;;
75342;SDS011;63936;51.006;13.764;2022-10-16T07:08:01;12;;;10;;
75342;SDS011;63936;51.006;13.764;2022-10-16T07:10:02;13;;;11;;
75342;SDS011;63936;51.006;13.764;2022-10-16T07:12:02;13;;;11;;
75342;SDS011;63936;51.006;13.764;2022-10-16T07:14:02;13;;;11;;
75342;SDS011;63936;51.006;13.764;2022-10-16T07:16:05;13;;;11;;
75342;SDS011;63936;51.006;13.764;2022-10-16T07:18:02;14;;;12;;
75342;SDS011;63936;51.006;13.764;2022-10-16T07:20:02;14;;;13;;
75342;SDS011;63936;51.006;13.764;2022-10-16T07:22:02;15;;;13;;
75342;SDS011;63936;51.006;13.764;2022-10-16T07:24:02;14;;;12;;
75342;SDS011;63936;51.006;13.764;2022-10-16T07:26:03;13;;;12;;
75342;SDS011;63936;51.006;13.764;2022-10-16T07:28:01;14;;;12;;
75342;SDS011;63936;51.006;13.764;2022-10-16T07:30:02;14;;;12;;
75342;SDS011;63936;51.006;13.764;2022-10-16T07:32:01;13;;;12;;
75342;SDS011;63936;51.006;13.764;2022-10-16T07:34:01;15;;;12;;
75342;SDS011;63936;51.006;13.764;2022-10-16T07:36:01;14;;;12;;
75342;SDS011;63936;51.006;13.764;2022-10-16T07:38:01;13;;;12;;
75342;SDS011;63936;51.006;13.764;2022-10-16T07:40:02;15;;;13;;
75342;SDS011;63936;51.006;13.764;2022-10-16T07:42:02;21;;;19;;
75342;SDS011;63936;51.006;13.764;2022-10-16T07:44:01;42;;;37;;
75342;SDS011;63936;51.006;13.764;2022-10-16T07:46:01;31;;;28;;
75342;SDS011;63936;51.006;13.764;2022-10-16T07:48:02;16;;;14;;
75342;SDS011;63936;51.006;13.764;2022-10-16T07:50:02;17;;;15;;
75342;SDS011;63936;51.006;13.764;2022-10-16T07:52:02;16;;;15;;
75342;SDS011;63936;51.006;13.764;2022-10-16T07:54:02;15;;;14;;
75342;SDS011;63936;51.006;13.764;2022-10-16T07:56:03;15;;;14;;
75342;SDS011;63936;51.006;13.764;2022-10-16T07:58:01;16;;;15;;
75342;SDS011;63936;51.006;13.764;2022-10-16T08:00:02;17;;;14;;
75342;SDS011;63936;51.006;13.764;2022-10-16T08:02:02;16;;;14;;
75342;SDS011;63936;51.006;13.764;2022-10-16T08:04:01;15;;;13;;
75342;SDS011;63936;51.006;13.764;2022-10-16T08:06:02;15;;;13;;
75342;SDS011;63936;51.006;13.764;2022-10-16T08:08:02;15;;;14;;
75342;SDS011;63936;51.006;13.764;2022-10-16T08:10:02;15;;;13;;
75342;SDS011;63936;51.006;13.764;2022-10-16T08:12:02;14;;;12;;
75342;SDS011;63936;51.006;13.764;2022-10-16T08:14:02;15;;;13;;
75342;SDS011;63936;51.006;13.764;2022-10-16T08:16:02;13;;;12;;
75342;SDS011;63936;51.006;13.764;2022-10-16T08:18:02;13;;;12;;
75342;SDS011;63936;51.006;13.764;2022-10-16T08:20:02;14;;;12;;
75342;SDS011;63936;51.006;13.764;2022-10-16T08:22:02;14;;;12;;
75342;SDS011;63936;51.006;13.764;2022-10-16T08:24:01;14;;;13;;
75342;SDS011;63936;51.006;13.764;2022-10-16T08:26:03;14;;;12;;
75342;SDS011;63936;51.006;13.764;2022-10-16T08:28:03;14;;;12;;
75342;SDS011;63936;51.006;13.764;2022-10-16T08:30:02;13;;;12;;
75342;SDS011;63936;51.006;13.764;2022-10-16T08:32:03;13;;;12;;
75342;SDS011;63936;51.006;13.764;2022-10-16T08:34:02;13;;;11;;
75342;SDS011;63936;51.006;13.764;2022-10-16T08:36:03;12;;;11;;
75342;SDS011;63936;51.006;13.764;2022-10-16T08:38:02;12;;;11;;
75342;SDS011;63936;51.006;13.764;2022-10-16T08:40:03;13;;;11;;
75342;SDS011;63936;51.006;13.764;2022-10-16T08:42:05;12;;;11;;
75342;SDS011;63936;51.006;13.764;2022-10-16T08:44:06;12;;;11;;
75342;SDS011;63936;51.006;13.764;2022-10-16T08:46:05;12;;;10;;
75342;SDS011;63936;51.006;13.764;2022-10-16T08:48:06;11;;;10;;
75342;SDS011;63936;51.006;13.764;2022-10-16T08:50:10;11;;;10;;
75342;SDS011;63936;51.006;13.764;2022-10-16T08:52:02;11;;;10;;
75342;SDS011;63936;51.006;13.764;2022-10-16T08:54:02;11;;;10;;
75342;SDS011;63936;51.006;13.764;2022-10-16T08:56:02;11;;;9;;
75342;SDS011;63936;51.006;13.764;2022-10-16T08:58:01;10;;;9;;
75342;SDS011;63936;51.006;13.764;2022-10-16T09:00:05;10;;;9;;
75342;SDS011;63936;51.006;13.764;2022-10-16T09:02:14;11;;;9;;
75342;SDS011;63936;51.006;13.764;2022-10-16T09:04:06;12;;;9;;
75342;SDS011;63936;51.006;13.764;2022-10-16T09:06:07;11;;;9;;
75342;SDS011;63936;51.006;13.764;2022-10-16T09:08:03;10;;;9;;
75342;SDS011;63936;51.006;13.764;2022-10-16T09:10:06;10;;;9;;
75342;SDS011;63936;51.006;13.764;2022-10-16T09:12:04;10;;;8;;
75342;SDS011;63936;51.006;13.764;2022-10-16T09:14:02;10;;;9;;
75342;SDS011;63936;51.006;13.764;2022-10-16T09:16:04;10;;;9;;
75342;SDS011;63936;51.006;13.764;2022-10-16T09:18:02;10;;;9;;
75342;SDS011;63936;51.006;13.764;2022-10-16T09:20:07;9;;;8;;
75342;SDS011;63936;51.006;13.764;2022-10-16T09:22:04;10;;;8;;
75342;SDS011;63936;51.006;13.764;2022-10-16T09:24:07;11;;;8;;
75342;SDS011;63936;51.006;13.764;2022-10-16T09:26:02;11;;;8;;
75342;SDS011;63936;51.006;13.764;2022-10-16T09:28:02;9;;;8;;
75342;SDS011;63936;51.006;13.764;2022-10-16T09:30:06;9;;;8;;
75342;SDS011;63936;51.006;13.764;2022-10-16T09:32:07;11;;;8;;
75342;SDS011;63936;51.006;13.764;2022-10-16T09:34:02;10;;;8;;
75342;SDS011;63936;51.006;13.764;2022-10-16T09:36:02;9;;;7;;
75342;SDS011;63936;51.006;13.764;2022-10-16T09:38:01;9;;;7;;
75342;SDS011;63936;51.006;13.764;2022-10-16T09:40:02;8;;;7;;
75342;SDS011;63936;51.006;13.764;2022-10-16T09:42:03;8;;;7;;
75342;SDS011;63936;51.006;13.764;2022-10-16T09:44:02;8;;;7;;
75342;SDS011;63936;51.006;13.764;2022-10-16T09:46:02;8;;;6;;
75342;SDS011;63936;51.006;13.764;2022-10-16T09:48:01;8;;;6;;
75342;SDS011;63936;51.006;13.764;2022-10-16T09:50:02;8;;;6;;
75342;SDS011;63936;51.006;13.764;2022-10-16T09:52:03;8;;;6;;
75342;SDS011;63936;51.006;13.764;2022-10-16T09:54:02;8;;;6;;
75342;SDS011;63936;51.006;13.764;2022-10-16T09:56:01;8;;;6;;
75342;SDS011;63936;51.006;13.764;2022-10-16T09:58:01;8;;;6;;
75342;SDS011;63936;51.006;13.764;2022-10-16T10:00:04;9;;;7;;
75342;SDS011;63936;51.006;13.764;2022-10-16T10:02:03;9;;;6;;
75342;SDS011;63936;51.006;13.764;2022-10-16T10:04:01;9;;;6;;
75342;SDS011;63936;51.006;13.764;2022-10-16T10:06:04;9;;;6;;
75342;SDS011;63936;51.006;13.764;2022-10-16T10:08:01;9;;;6;;
75342;SDS011;63936;51.006;13.764;2022-10-16T10:10:04;9;;;6;;
75342;SDS011;63936;51.006;13.764;2022-10-16T10:12:02;9;;;6;;
75342;SDS011;63936;51.006;13.764;2022-10-16T10:14:05;9;;;7;;
75342;SDS011;63936;51.006;13.764;2022-10-16T10:16:02;9;;;7;;
75342;SDS011;63936;51.006;13.764;2022-10-16T10:18:02;5;;;3;;
75342;SDS011;63936;51.006;13.764;2022-10-16T10:20:15;4;;;1;;
75342;SDS011;63936;51.006;13.764;2022-10-16T10:22:01;4;;;1;;
75342;SDS011;63936;51.006;13.764;2022-10-16T10:24:01;4;;;1;;
75342;SDS011;63936;51.006;13.764;2022-10-16T10:26:02;4;;;1;;
75342;SDS011;63936;51.006;13.764;2022-10-16T10:28:05;4;;;1;;
75342;SDS011;63936;51.006;13.764;2022-10-16T10:30:02;4;;;1;;
75342;SDS011;63936;51.006;13.764;2022-10-16T10:32:05;3;;;1;;
75342;SDS011;63936;51.006;13.764;2022-10-16T10:34:04;3;;;1;;
75342;SDS011;63936;51.006;13.764;2022-10-16T10:36:05;3;;;1;;
75342;SDS011;63936;51.006;13.764;2022-10-16T10:38:04;3;;;1;;
75342;SDS011;63936;51.006;13.764;2022-10-16T10:40:04;3;;;1;;
75342;SDS011;63936;51.006;13.764;2022-10-16T10:42:05;4;;;1;;
75342;SDS011;63936;51.006;13.764;2022-10-16T10:44:03;4;;;1;;
75342;SDS011;63936;51.006;13.764;2022-10-16T10:46:03;4;;;1;;
75342;SDS011;63936;51.006;13.764;2022-10-16T10:48:06;4;;;2;;
75342;SDS011;63936;51.006;13.764;2022-10-16T10:50:07;4;;;2;;
75342;SDS011;63936;51.006;13.764;2022-10-16T10:52:07;6;;;1;;
75342;SDS011;63936;51.006;13.764;2022-10-16T10:54:04;6;;;1;;
75342;SDS011;63936;51.006;13.764;2022-10-16T10:56:04;3;;;1;;
75342;SDS011;63936;51.006;13.764;2022-10-16T10:58:06;3;;;1;;
75342;SDS011;63936;51.006;13.764;2022-10-16T11:00:03;3;;;1;;
75342;SDS011;63936;51.006;13.764;2022-10-16T11:02:02;3;;;1;;
75342;SDS011;63936;51.006;13.764;2022-10-16T11:04:06;3;;;1;;
75342;SDS011;63936;51.006;13.764;2022-10-16T11:06:03;4;;;1;;
75342;SDS011;63936;51.006;13.764;2022-10-16T11:08:02;4;;;1;;
75342;SDS011;63936;51.006;13.764;2022-10-16T11:10:02;4;;;1;;
75342;SDS011;63936;51.006;13.764;2022-10-16T11:12:03;3;;;1;;
75342;SDS011;63936;51.006;13.764;2022-10-16T11:14:03;3;;;1;;
75342;SDS011;63936;51.006;13.764;2022-10-16T11:16:03;2;;;0;;
75342;SDS011;63936;51.006;13.764;2022-10-16T11:18:03;2;;;0;;
75342;SDS011;63936;51.006;13.764;2022-10-16T11:20:03;3;;;1;;
75342;SDS011;63936;51.006;13.764;2022-10-16T11:22:03;3;;;1;;
75342;SDS011;63936;51.006;13.764;2022-10-16T11:24:02;3;;;1;;
75342;SDS011;63936;51.006;13.764;2022-10-16T11:26:02;7;;;1;;
75342;SDS011;63936;51.006;13.764;2022-10-16T11:28:02;7;;;1;;
75342;SDS011;63936;51.006;13.764;2022-10-16T11:30:02;4;;;1;;
75342;SDS011;63936;51.006;13.764;2022-10-16T11:32:04;3;;;1;;
75342;SDS011;63936;51.006;13.764;2022-10-16T11:34:02;3;;;1;;
75342;SDS011;63936;51.006;13.764;2022-10-16T11:36:04;4;;;1;;
75342;SDS011;63936;51.006;13.764;2022-10-16T11:38:02;3;;;1;;
75342;SDS011;63936;51.006;13.764;2022-10-16T11:40:04;3;;;1;;
75342;SDS011;63936;51.006;13.764;2022-10-16T11:42:03;3;;;1;;
75342;SDS011;63936;51.006;13.764;2022-10-16T11:44:06;3;;;1;;
75342;SDS011;63936;51.006;13.764;2022-10-16T11:46:03;3;;;1;;
75342;SDS011;63936;51.006;13.764;2022-10-16T11:48:02;3;;;1;;
75342;SDS011;63936;51.006;13.764;2022-10-16T11:50:02;4;;;1;;
75342;SDS011;63936;51.006;13.764;2022-10-16T11:52:05;3;;;1;;
75342;SDS011;63936;51.006;13.764;2022-10-16T11:54:02;3;;;1;;
75342;SDS011;63936;51.006;13.764;2022-10-16T11:56:01;5;;;3;;
75342;SDS011;63936;51.006;13.764;2022-10-16T11:58:02;4;;;1;;
75342;SDS011;63936;51.006;13.764;2022-10-16T12:00:03;4;;;1;;
75342;SDS011;63936;51.006;13.764;2022-10-16T12:02:07;3;;;1;;
75342;SDS011;63936;51.006;13.764;2022-10-16T12:04:04;5;;;1;;
75342;SDS011;63936;51.006;13.764;2022-10-16T12:06:06;4;;;1;;
75342;SDS011;63936;51.006;13.764;2022-10-16T12:08:04;4;;;1;;
75342;SDS011;63936;51.006;13.764;2022-10-16T12:10:09;4;;;1;;
75342;SDS011;63936;51.006;13.764;2022-10-16T12:12:01;4;;;1;;
75342;SDS011;63936;51.006;13.764;2022-10-16T12:14:18;3;;;1;;
75342;SDS011;63936;51.006;13.764;2022-10-16T12:16:05;3;;;1;;
75342;SDS011;63936;51.006;13.764;2022-10-16T12:18:01;4;;;1;;
75342;SDS011;63936;51.006;13.764;2022-10-16T12:20:12;3;;;1;;
75342;SDS011;63936;51.006;13.764;2022-10-16T12:22:02;3;;;1;;
75342;SDS011;63936;51.006;13.764;2022-10-16T12:24:02;3;;;1;;
75342;SDS011;63936;51.006;13.764;2022-10-16T12:26:01;3;;;1;;
75342;SDS011;63936;51.006;13.764;2022-10-16T12:28:02;3;;;1;;
75342;SDS011;63936;51.006;13.764;2022-10-16T12:30:03;3;;;1;;
75342;SDS011;63936;51.006;13.764;2022-10-16T12:32:02;3;;;1;;
75342;SDS011;63936;51.006;13.764;2022-10-16T12:34:02;3;;;1;;
75342;SDS011;63936;51.006;13.764;2022-10-16T12:36:03;3;;;1;;
75342;SDS011;63936;51.006;13.764;2022-10-16T12:38:06;3;;;1;;
75342;SDS011;63936;51.006;13.764;2022-10-16T12:40:11;3;;;1;;
75342;SDS011;63936;51.006;13.764;2022-10-16T12:42:02;3;;;1;;
75342;SDS011;63936;51.006;13.764;2022-10-16T12:44:01;5;;;1;;